<?xml version="1.0" encoding="UTF-8" standalone="no" ?>
<gpx xmlns="http://www.topografix.com/GPX/1/1" xmlns:xsi="http://www.w3.org/2001/XMLSchema-instance" xsi:schemaLocation="http://www.topografix.com/GPX/1/1 http://www.topografix.com/GPX/1/1/gpx.xsd" version="1.1" creator="VisuGPX - https://www.visugpx.com">
  <metadata>
    <name>lefarda Mansac Les Trépadours</name>
    <desc><![CDATA[Belle rando qui alterne un peu de route avec de beaux sentiers en forêt. Difficulté moyenne.]]></desc>
  </metadata>
  <trk>
    <name><![CDATA[lefarda Mansac Les Trépadours_1]]></name>
    <trkseg>
      <trkpt lat="45.16767" lon="1.38342">
        <ele>196</ele>
        <time>2012-10-09T06:58:14Z</time>
      </trkpt>
      <trkpt lat="45.16792" lon="1.38315">
        <ele>200</ele>
        <time>2012-10-09T06:58:56Z</time>
      </trkpt>
      <trkpt lat="45.16806" lon="1.3828">
        <ele>199</ele>
        <time>2012-10-09T06:59:18Z</time>
      </trkpt>
      <trkpt lat="45.16826" lon="1.38248">
        <ele>198</ele>
        <time>2012-10-09T06:59:42Z</time>
      </trkpt>
      <trkpt lat="45.1685" lon="1.38229">
        <ele>197</ele>
        <time>2012-10-09T07:00:02Z</time>
      </trkpt>
      <trkpt lat="45.16869" lon="1.38199">
        <ele>196</ele>
        <time>2012-10-09T07:00:26Z</time>
      </trkpt>
      <trkpt lat="45.16878" lon="1.38169">
        <ele>196</ele>
        <time>2012-10-09T07:00:47Z</time>
      </trkpt>
      <trkpt lat="45.16853" lon="1.38109">
        <ele>197</ele>
        <time>2012-10-09T07:01:32Z</time>
      </trkpt>
      <trkpt lat="45.16825" lon="1.38099">
        <ele>194</ele>
        <time>2012-10-09T07:01:53Z</time>
      </trkpt>
      <trkpt lat="45.16799" lon="1.38084">
        <ele>192</ele>
        <time>2012-10-09T07:02:14Z</time>
      </trkpt>
      <trkpt lat="45.16748" lon="1.38009">
        <ele>181</ele>
        <time>2012-10-09T07:03:23Z</time>
      </trkpt>
      <trkpt lat="45.16729" lon="1.37992">
        <ele>175</ele>
        <time>2012-10-09T07:03:44Z</time>
      </trkpt>
      <trkpt lat="45.16711" lon="1.37985">
        <ele>169</ele>
        <time>2012-10-09T07:04:04Z</time>
      </trkpt>
      <trkpt lat="45.16534" lon="1.37874">
        <ele>144</ele>
        <time>2012-10-09T07:07:31Z</time>
      </trkpt>
      <trkpt lat="45.1652" lon="1.37854">
        <ele>142</ele>
        <time>2012-10-09T07:07:53Z</time>
      </trkpt>
      <trkpt lat="45.16517" lon="1.37817">
        <ele>131</ele>
        <time>2012-10-09T07:08:19Z</time>
      </trkpt>
      <trkpt lat="45.16492" lon="1.37818">
        <ele>124</ele>
        <time>2012-10-09T07:08:39Z</time>
      </trkpt>
      <trkpt lat="45.16469" lon="1.37836">
        <ele>121</ele>
        <time>2012-10-09T07:08:59Z</time>
      </trkpt>
      <trkpt lat="45.16388" lon="1.37933">
        <ele>111</ele>
        <time>2012-10-09T07:10:20Z</time>
      </trkpt>
      <trkpt lat="45.16363" lon="1.37944">
        <ele>111</ele>
        <time>2012-10-09T07:10:43Z</time>
      </trkpt>
      <trkpt lat="45.16357" lon="1.37962">
        <ele>111</ele>
        <time>2012-10-09T07:11:04Z</time>
      </trkpt>
      <trkpt lat="45.16433" lon="1.38072">
        <ele>115</ele>
        <time>2012-10-09T07:12:33Z</time>
      </trkpt>
      <trkpt lat="45.16457" lon="1.38094">
        <ele>117</ele>
        <time>2012-10-09T07:12:57Z</time>
      </trkpt>
      <trkpt lat="45.16515" lon="1.38109">
        <ele>123</ele>
        <time>2012-10-09T07:13:45Z</time>
      </trkpt>
      <trkpt lat="45.16536" lon="1.38133">
        <ele>124</ele>
        <time>2012-10-09T07:14:07Z</time>
      </trkpt>
      <trkpt lat="45.16587" lon="1.38279">
        <ele>144</ele>
        <time>2012-10-09T07:15:58Z</time>
      </trkpt>
      <trkpt lat="45.16601" lon="1.38299">
        <ele>150</ele>
        <time>2012-10-09T07:16:20Z</time>
      </trkpt>
      <trkpt lat="45.1663" lon="1.38444">
        <ele>149</ele>
        <time>2012-10-09T07:17:51Z</time>
      </trkpt>
      <trkpt lat="45.16616" lon="1.3852">
        <ele>145</ele>
        <time>2012-10-09T07:18:32Z</time>
      </trkpt>
      <trkpt lat="45.16626" lon="1.38592">
        <ele>138</ele>
        <time>2012-10-09T07:19:15Z</time>
      </trkpt>
      <trkpt lat="45.16614" lon="1.38629">
        <ele>136</ele>
        <time>2012-10-09T07:19:36Z</time>
      </trkpt>
      <trkpt lat="45.16624" lon="1.38752">
        <ele>131</ele>
        <time>2012-10-09T07:20:42Z</time>
      </trkpt>
      <trkpt lat="45.16647" lon="1.3878">
        <ele>130</ele>
        <time>2012-10-09T07:21:07Z</time>
      </trkpt>
      <trkpt lat="45.16689" lon="1.38817">
        <ele>132</ele>
        <time>2012-10-09T07:21:50Z</time>
      </trkpt>
      <trkpt lat="45.16687" lon="1.38891">
        <ele>134</ele>
        <time>2012-10-09T07:22:38Z</time>
      </trkpt>
      <trkpt lat="45.16703" lon="1.38912">
        <ele>138</ele>
        <time>2012-10-09T07:23:00Z</time>
      </trkpt>
      <trkpt lat="45.16726" lon="1.389">
        <ele>140</ele>
        <time>2012-10-09T07:23:23Z</time>
      </trkpt>
      <trkpt lat="45.16745" lon="1.38884">
        <ele>143</ele>
        <time>2012-10-09T07:23:45Z</time>
      </trkpt>
      <trkpt lat="45.16808" lon="1.38858">
        <ele>154</ele>
        <time>2012-10-09T07:24:47Z</time>
      </trkpt>
      <trkpt lat="45.16919" lon="1.38825">
        <ele>167</ele>
        <time>2012-10-09T07:26:37Z</time>
      </trkpt>
      <trkpt lat="45.16962" lon="1.38782">
        <ele>174</ele>
        <time>2012-10-09T07:27:23Z</time>
      </trkpt>
      <trkpt lat="45.16983" lon="1.38778">
        <ele>176</ele>
        <time>2012-10-09T07:27:43Z</time>
      </trkpt>
      <trkpt lat="45.17062" lon="1.38958">
        <ele>179</ele>
        <time>2012-10-09T07:29:41Z</time>
      </trkpt>
      <trkpt lat="45.1709" lon="1.38951">
        <ele>180</ele>
        <time>2012-10-09T07:30:06Z</time>
      </trkpt>
      <trkpt lat="45.1711" lon="1.38924">
        <ele>180</ele>
        <time>2012-10-09T07:30:26Z</time>
      </trkpt>
      <trkpt lat="45.17117" lon="1.38901">
        <ele>180</ele>
        <time>2012-10-09T07:30:48Z</time>
      </trkpt>
      <trkpt lat="45.17108" lon="1.38849">
        <ele>180</ele>
        <time>2012-10-09T07:31:09Z</time>
      </trkpt>
      <trkpt lat="45.17127" lon="1.38816">
        <ele>180</ele>
        <time>2012-10-09T07:31:35Z</time>
      </trkpt>
      <trkpt lat="45.17148" lon="1.38787">
        <ele>178</ele>
        <time>2012-10-09T07:31:56Z</time>
      </trkpt>
      <trkpt lat="45.17205" lon="1.3874">
        <ele>173</ele>
        <time>2012-10-09T07:32:48Z</time>
      </trkpt>
      <trkpt lat="45.17235" lon="1.38701">
        <ele>169</ele>
        <time>2012-10-09T07:33:08Z</time>
      </trkpt>
      <trkpt lat="45.17266" lon="1.38632">
        <ele>164</ele>
        <time>2012-10-09T07:33:50Z</time>
      </trkpt>
      <trkpt lat="45.17289" lon="1.38568">
        <ele>159</ele>
        <time>2012-10-09T07:34:30Z</time>
      </trkpt>
      <trkpt lat="45.1732" lon="1.38565">
        <ele>156</ele>
        <time>2012-10-09T07:34:53Z</time>
      </trkpt>
      <trkpt lat="45.17378" lon="1.3859">
        <ele>144</ele>
        <time>2012-10-09T07:36:02Z</time>
      </trkpt>
      <trkpt lat="45.17396" lon="1.38588">
        <ele>142</ele>
        <time>2012-10-09T07:36:24Z</time>
      </trkpt>
      <trkpt lat="45.17411" lon="1.38583">
        <ele>138</ele>
        <time>2012-10-09T07:36:47Z</time>
      </trkpt>
      <trkpt lat="45.1745" lon="1.38596">
        <ele>134</ele>
        <time>2012-10-09T07:37:33Z</time>
      </trkpt>
      <trkpt lat="45.17466" lon="1.38609">
        <ele>134</ele>
        <time>2012-10-09T07:37:54Z</time>
      </trkpt>
      <trkpt lat="45.17476" lon="1.38623">
        <ele>136</ele>
        <time>2012-10-09T07:38:17Z</time>
      </trkpt>
      <trkpt lat="45.17496" lon="1.38639">
        <ele>138</ele>
        <time>2012-10-09T07:38:41Z</time>
      </trkpt>
      <trkpt lat="45.17578" lon="1.38733">
        <ele>155</ele>
        <time>2012-10-09T07:40:48Z</time>
      </trkpt>
      <trkpt lat="45.17596" lon="1.38749">
        <ele>157</ele>
        <time>2012-10-09T07:41:10Z</time>
      </trkpt>
      <trkpt lat="45.17616" lon="1.38734">
        <ele>159</ele>
        <time>2012-10-09T07:41:30Z</time>
      </trkpt>
      <trkpt lat="45.17624" lon="1.38656">
        <ele>152</ele>
        <time>2012-10-09T07:42:16Z</time>
      </trkpt>
      <trkpt lat="45.17643" lon="1.38628">
        <ele>152</ele>
        <time>2012-10-09T07:42:37Z</time>
      </trkpt>
      <trkpt lat="45.17665" lon="1.38603">
        <ele>152</ele>
        <time>2012-10-09T07:42:59Z</time>
      </trkpt>
      <trkpt lat="45.17692" lon="1.38528">
        <ele>146</ele>
        <time>2012-10-09T07:43:43Z</time>
      </trkpt>
      <trkpt lat="45.17714" lon="1.38498">
        <ele>143</ele>
        <time>2012-10-09T07:44:04Z</time>
      </trkpt>
      <trkpt lat="45.17778" lon="1.38355">
        <ele>127</ele>
        <time>2012-10-09T07:45:32Z</time>
      </trkpt>
      <trkpt lat="45.17789" lon="1.38268">
        <ele>125</ele>
        <time>2012-10-09T07:46:19Z</time>
      </trkpt>
      <trkpt lat="45.17815" lon="1.38245">
        <ele>125</ele>
        <time>2012-10-09T07:46:41Z</time>
      </trkpt>
      <trkpt lat="45.17823" lon="1.38212">
        <ele>123</ele>
        <time>2012-10-09T07:47:07Z</time>
      </trkpt>
      <trkpt lat="45.17847" lon="1.3822">
        <ele>114</ele>
        <time>2012-10-09T07:47:33Z</time>
      </trkpt>
      <trkpt lat="45.17865" lon="1.38236">
        <ele>114</ele>
        <time>2012-10-09T07:47:53Z</time>
      </trkpt>
      <trkpt lat="45.17908" lon="1.38282">
        <ele>114</ele>
        <time>2012-10-09T07:48:34Z</time>
      </trkpt>
      <trkpt lat="45.17939" lon="1.38324">
        <ele>117</ele>
        <time>2012-10-09T07:48:59Z</time>
      </trkpt>
      <trkpt lat="45.17946" lon="1.38355">
        <ele>117</ele>
        <time>2012-10-09T07:49:20Z</time>
      </trkpt>
      <trkpt lat="45.17975" lon="1.38426">
        <ele>115</ele>
        <time>2012-10-09T07:50:07Z</time>
      </trkpt>
      <trkpt lat="45.18093" lon="1.3857">
        <ele>111</ele>
        <time>2012-10-09T07:52:05Z</time>
      </trkpt>
      <trkpt lat="45.18129" lon="1.38659">
        <ele>113</ele>
        <time>2012-10-09T07:53:14Z</time>
      </trkpt>
      <trkpt lat="45.18148" lon="1.38683">
        <ele>118</ele>
        <time>2012-10-09T07:53:35Z</time>
      </trkpt>
      <trkpt lat="45.18257" lon="1.38744">
        <ele>125</ele>
        <time>2012-10-09T07:55:13Z</time>
      </trkpt>
      <trkpt lat="45.1829" lon="1.38777">
        <ele>128</ele>
        <time>2012-10-09T07:55:37Z</time>
      </trkpt>
      <trkpt lat="45.18366" lon="1.38818">
        <ele>133</ele>
        <time>2012-10-09T07:56:45Z</time>
      </trkpt>
      <trkpt lat="45.18434" lon="1.3894">
        <ele>140</ele>
        <time>2012-10-09T07:58:10Z</time>
      </trkpt>
      <trkpt lat="45.18457" lon="1.38972">
        <ele>140</ele>
        <time>2012-10-09T07:58:31Z</time>
      </trkpt>
      <trkpt lat="45.18479" lon="1.38989">
        <ele>140</ele>
        <time>2012-10-09T07:58:51Z</time>
      </trkpt>
      <trkpt lat="45.18502" lon="1.38977">
        <ele>140</ele>
        <time>2012-10-09T07:59:13Z</time>
      </trkpt>
      <trkpt lat="45.18524" lon="1.3896">
        <ele>140</ele>
        <time>2012-10-09T07:59:37Z</time>
      </trkpt>
      <trkpt lat="45.18539" lon="1.3893">
        <ele>140</ele>
        <time>2012-10-09T07:59:59Z</time>
      </trkpt>
      <trkpt lat="45.18567" lon="1.38916">
        <ele>140</ele>
        <time>2012-10-09T08:00:22Z</time>
      </trkpt>
      <trkpt lat="45.18591" lon="1.38896">
        <ele>135</ele>
        <time>2012-10-09T08:00:45Z</time>
      </trkpt>
      <trkpt lat="45.18605" lon="1.38891">
        <ele>135</ele>
        <time>2012-10-09T08:01:09Z</time>
      </trkpt>
      <trkpt lat="45.18636" lon="1.38898">
        <ele>139</ele>
        <time>2012-10-09T08:01:32Z</time>
      </trkpt>
      <trkpt lat="45.18678" lon="1.389">
        <ele>137</ele>
        <time>2012-10-09T08:02:16Z</time>
      </trkpt>
      <trkpt lat="45.1871" lon="1.3893">
        <ele>133</ele>
        <time>2012-10-09T08:02:39Z</time>
      </trkpt>
      <trkpt lat="45.18746" lon="1.38992">
        <ele>135</ele>
        <time>2012-10-09T08:03:26Z</time>
      </trkpt>
      <trkpt lat="45.18765" lon="1.3901">
        <ele>127</ele>
        <time>2012-10-09T08:03:46Z</time>
      </trkpt>
      <trkpt lat="45.18841" lon="1.39013">
        <ele>129</ele>
        <time>2012-10-09T08:04:49Z</time>
      </trkpt>
      <trkpt lat="45.18866" lon="1.39002">
        <ele>127</ele>
        <time>2012-10-09T08:05:11Z</time>
      </trkpt>
      <trkpt lat="45.18889" lon="1.38983">
        <ele>127</ele>
        <time>2012-10-09T08:05:31Z</time>
      </trkpt>
      <trkpt lat="45.18908" lon="1.38963">
        <ele>127</ele>
        <time>2012-10-09T08:05:52Z</time>
      </trkpt>
      <trkpt lat="45.18963" lon="1.38887">
        <ele>139</ele>
        <time>2012-10-09T08:07:19Z</time>
      </trkpt>
      <trkpt lat="45.1896" lon="1.38862">
        <ele>141</ele>
        <time>2012-10-09T08:07:41Z</time>
      </trkpt>
      <trkpt lat="45.18939" lon="1.38793">
        <ele>145</ele>
        <time>2012-10-09T08:08:24Z</time>
      </trkpt>
      <trkpt lat="45.18929" lon="1.3877">
        <ele>152</ele>
        <time>2012-10-09T08:08:44Z</time>
      </trkpt>
      <trkpt lat="45.18913" lon="1.38747">
        <ele>156</ele>
        <time>2012-10-09T08:09:06Z</time>
      </trkpt>
      <trkpt lat="45.18893" lon="1.38736">
        <ele>156</ele>
        <time>2012-10-09T08:09:26Z</time>
      </trkpt>
      <trkpt lat="45.18874" lon="1.38728">
        <ele>156</ele>
        <time>2012-10-09T08:09:46Z</time>
      </trkpt>
      <trkpt lat="45.18848" lon="1.38726">
        <ele>156</ele>
        <time>2012-10-09T08:10:07Z</time>
      </trkpt>
      <trkpt lat="45.18795" lon="1.38663">
        <ele>161</ele>
        <time>2012-10-09T08:11:07Z</time>
      </trkpt>
      <trkpt lat="45.18798" lon="1.38646">
        <ele>163</ele>
        <time>2012-10-09T08:11:27Z</time>
      </trkpt>
      <trkpt lat="45.18819" lon="1.38647">
        <ele>167</ele>
        <time>2012-10-09T08:11:49Z</time>
      </trkpt>
      <trkpt lat="45.18842" lon="1.38642">
        <ele>169</ele>
        <time>2012-10-09T08:12:11Z</time>
      </trkpt>
      <trkpt lat="45.18865" lon="1.38625">
        <ele>172</ele>
        <time>2012-10-09T08:12:34Z</time>
      </trkpt>
      <trkpt lat="45.18888" lon="1.38613">
        <ele>172</ele>
        <time>2012-10-09T08:12:56Z</time>
      </trkpt>
      <trkpt lat="45.18895" lon="1.38588">
        <ele>173</ele>
        <time>2012-10-09T08:13:17Z</time>
      </trkpt>
      <trkpt lat="45.18905" lon="1.38529">
        <ele>184</ele>
        <time>2012-10-09T08:14:01Z</time>
      </trkpt>
      <trkpt lat="45.18945" lon="1.38394">
        <ele>196</ele>
        <time>2012-10-09T08:15:48Z</time>
      </trkpt>
      <trkpt lat="45.18893" lon="1.38376">
        <ele>197</ele>
        <time>2012-10-09T08:16:29Z</time>
      </trkpt>
      <trkpt lat="45.1884" lon="1.38289">
        <ele>197</ele>
        <time>2012-10-09T08:17:32Z</time>
      </trkpt>
      <trkpt lat="45.18816" lon="1.38264">
        <ele>196</ele>
        <time>2012-10-09T08:17:59Z</time>
      </trkpt>
      <trkpt lat="45.18794" lon="1.38251">
        <ele>190</ele>
        <time>2012-10-09T08:18:19Z</time>
      </trkpt>
      <trkpt lat="45.18777" lon="1.38219">
        <ele>189</ele>
        <time>2012-10-09T08:18:40Z</time>
      </trkpt>
      <trkpt lat="45.18782" lon="1.38186">
        <ele>189</ele>
        <time>2012-10-09T08:19:01Z</time>
      </trkpt>
      <trkpt lat="45.18793" lon="1.38145">
        <ele>189</ele>
        <time>2012-10-09T08:19:27Z</time>
      </trkpt>
      <trkpt lat="45.1881" lon="1.38109">
        <ele>185</ele>
        <time>2012-10-09T08:19:50Z</time>
      </trkpt>
      <trkpt lat="45.18822" lon="1.38071">
        <ele>182</ele>
        <time>2012-10-09T08:20:11Z</time>
      </trkpt>
      <trkpt lat="45.18829" lon="1.38036">
        <ele>177</ele>
        <time>2012-10-09T08:20:33Z</time>
      </trkpt>
      <trkpt lat="45.18824" lon="1.37995">
        <ele>173</ele>
        <time>2012-10-09T08:20:54Z</time>
      </trkpt>
      <trkpt lat="45.18806" lon="1.37984">
        <ele>169</ele>
        <time>2012-10-09T08:21:15Z</time>
      </trkpt>
      <trkpt lat="45.1875" lon="1.37992">
        <ele>159</ele>
        <time>2012-10-09T08:22:02Z</time>
      </trkpt>
      <trkpt lat="45.1873" lon="1.37951">
        <ele>159</ele>
        <time>2012-10-09T08:22:26Z</time>
      </trkpt>
      <trkpt lat="45.18754" lon="1.3779">
        <ele>151</ele>
        <time>2012-10-09T08:24:05Z</time>
      </trkpt>
      <trkpt lat="45.18744" lon="1.37747">
        <ele>144</ele>
        <time>2012-10-09T08:24:31Z</time>
      </trkpt>
      <trkpt lat="45.1871" lon="1.37676">
        <ele>142</ele>
        <time>2012-10-09T08:25:14Z</time>
      </trkpt>
      <trkpt lat="45.1871" lon="1.37636">
        <ele>142</ele>
        <time>2012-10-09T08:25:38Z</time>
      </trkpt>
      <trkpt lat="45.18698" lon="1.37599">
        <ele>138</ele>
        <time>2012-10-09T08:26:01Z</time>
      </trkpt>
      <trkpt lat="45.18648" lon="1.37511">
        <ele>126</ele>
        <time>2012-10-09T08:27:04Z</time>
      </trkpt>
      <trkpt lat="45.18624" lon="1.37481">
        <ele>123</ele>
        <time>2012-10-09T08:27:26Z</time>
      </trkpt>
      <trkpt lat="45.18518" lon="1.37376">
        <ele>124</ele>
        <time>2012-10-09T08:29:17Z</time>
      </trkpt>
      <trkpt lat="45.1849" lon="1.37368">
        <ele>124</ele>
        <time>2012-10-09T08:29:42Z</time>
      </trkpt>
      <trkpt lat="45.18476" lon="1.3734">
        <ele>128</ele>
        <time>2012-10-09T08:30:03Z</time>
      </trkpt>
      <trkpt lat="45.18478" lon="1.37309">
        <ele>131</ele>
        <time>2012-10-09T08:30:24Z</time>
      </trkpt>
      <trkpt lat="45.18497" lon="1.37287">
        <ele>134</ele>
        <time>2012-10-09T08:30:44Z</time>
      </trkpt>
      <trkpt lat="45.18561" lon="1.37249">
        <ele>139</ele>
        <time>2012-10-09T08:31:51Z</time>
      </trkpt>
      <trkpt lat="45.18581" lon="1.37227">
        <ele>139</ele>
        <time>2012-10-09T08:32:13Z</time>
      </trkpt>
      <trkpt lat="45.18587" lon="1.37165">
        <ele>149</ele>
        <time>2012-10-09T08:32:57Z</time>
      </trkpt>
      <trkpt lat="45.18579" lon="1.37127">
        <ele>156</ele>
        <time>2012-10-09T08:33:18Z</time>
      </trkpt>
      <trkpt lat="45.18558" lon="1.3707">
        <ele>157</ele>
        <time>2012-10-09T08:34:03Z</time>
      </trkpt>
      <trkpt lat="45.1854" lon="1.36913">
        <ele>165</ele>
        <time>2012-10-09T08:35:37Z</time>
      </trkpt>
      <trkpt lat="45.18512" lon="1.36819">
        <ele>175</ele>
        <time>2012-10-09T08:36:50Z</time>
      </trkpt>
      <trkpt lat="45.18501" lon="1.36793">
        <ele>177</ele>
        <time>2012-10-09T08:37:11Z</time>
      </trkpt>
      <trkpt lat="45.18509" lon="1.36767">
        <ele>179</ele>
        <time>2012-10-09T08:37:33Z</time>
      </trkpt>
      <trkpt lat="45.18539" lon="1.36709">
        <ele>182</ele>
        <time>2012-10-09T08:38:21Z</time>
      </trkpt>
      <trkpt lat="45.18513" lon="1.36698">
        <ele>184</ele>
        <time>2012-10-09T08:38:44Z</time>
      </trkpt>
      <trkpt lat="45.18402" lon="1.36673">
        <ele>185</ele>
        <time>2012-10-09T08:40:13Z</time>
      </trkpt>
      <trkpt lat="45.18372" lon="1.36661">
        <ele>185</ele>
        <time>2012-10-09T08:40:36Z</time>
      </trkpt>
      <trkpt lat="45.18347" lon="1.36643">
        <ele>185</ele>
        <time>2012-10-09T08:40:58Z</time>
      </trkpt>
      <trkpt lat="45.18318" lon="1.36626">
        <ele>185</ele>
        <time>2012-10-09T08:41:21Z</time>
      </trkpt>
      <trkpt lat="45.18295" lon="1.36617">
        <ele>185</ele>
        <time>2012-10-09T08:41:45Z</time>
      </trkpt>
      <trkpt lat="45.18266" lon="1.36613">
        <ele>185</ele>
        <time>2012-10-09T08:42:07Z</time>
      </trkpt>
      <trkpt lat="45.18242" lon="1.36598">
        <ele>184</ele>
        <time>2012-10-09T08:42:31Z</time>
      </trkpt>
      <trkpt lat="45.18191" lon="1.36314">
        <ele>183</ele>
        <time>2012-10-09T08:45:18Z</time>
      </trkpt>
      <trkpt lat="45.1814" lon="1.36189">
        <ele>176</ele>
        <time>2012-10-09T08:46:48Z</time>
      </trkpt>
      <trkpt lat="45.18122" lon="1.36069">
        <ele>165</ele>
        <time>2012-10-09T08:48:01Z</time>
      </trkpt>
      <trkpt lat="45.18121" lon="1.36033">
        <ele>163</ele>
        <time>2012-10-09T08:48:24Z</time>
      </trkpt>
      <trkpt lat="45.18097" lon="1.36027">
        <ele>159</ele>
        <time>2012-10-09T08:48:49Z</time>
      </trkpt>
      <trkpt lat="45.18038" lon="1.35838">
        <ele>129</ele>
        <time>2012-10-09T08:51:07Z</time>
      </trkpt>
      <trkpt lat="45.1801" lon="1.3578">
        <ele>114</ele>
        <time>2012-10-09T08:52:13Z</time>
      </trkpt>
      <trkpt lat="45.17993" lon="1.35752">
        <ele>111</ele>
        <time>2012-10-09T08:52:34Z</time>
      </trkpt>
      <trkpt lat="45.17979" lon="1.35715">
        <ele>111</ele>
        <time>2012-10-09T08:52:54Z</time>
      </trkpt>
      <trkpt lat="45.17958" lon="1.35705">
        <ele>111</ele>
        <time>2012-10-09T08:53:14Z</time>
      </trkpt>
      <trkpt lat="45.17937" lon="1.35719">
        <ele>109</ele>
        <time>2012-10-09T08:53:37Z</time>
      </trkpt>
      <trkpt lat="45.17908" lon="1.35727">
        <ele>112</ele>
        <time>2012-10-09T08:54:00Z</time>
      </trkpt>
      <trkpt lat="45.17904" lon="1.35761">
        <ele>106</ele>
        <time>2012-10-09T08:54:24Z</time>
      </trkpt>
      <trkpt lat="45.17897" lon="1.35788">
        <ele>106</ele>
        <time>2012-10-09T08:54:46Z</time>
      </trkpt>
      <trkpt lat="45.179" lon="1.35894">
        <ele>109</ele>
        <time>2012-10-09T08:55:55Z</time>
      </trkpt>
      <trkpt lat="45.17861" lon="1.35903">
        <ele>116</ele>
        <time>2012-10-09T08:56:37Z</time>
      </trkpt>
      <trkpt lat="45.17826" lon="1.35958">
        <ele>119</ele>
        <time>2012-10-09T08:57:24Z</time>
      </trkpt>
      <trkpt lat="45.17816" lon="1.35984">
        <ele>120</ele>
        <time>2012-10-09T08:57:47Z</time>
      </trkpt>
      <trkpt lat="45.17808" lon="1.36018">
        <ele>120</ele>
        <time>2012-10-09T08:58:08Z</time>
      </trkpt>
      <trkpt lat="45.17766" lon="1.36065">
        <ele>120</ele>
        <time>2012-10-09T08:58:53Z</time>
      </trkpt>
      <trkpt lat="45.1775" lon="1.36093">
        <ele>121</ele>
        <time>2012-10-09T08:59:14Z</time>
      </trkpt>
      <trkpt lat="45.17705" lon="1.36127">
        <ele>120</ele>
        <time>2012-10-09T08:59:58Z</time>
      </trkpt>
      <trkpt lat="45.17684" lon="1.36159">
        <ele>119</ele>
        <time>2012-10-09T09:00:24Z</time>
      </trkpt>
      <trkpt lat="45.17659" lon="1.36178">
        <ele>119</ele>
        <time>2012-10-09T09:00:46Z</time>
      </trkpt>
      <trkpt lat="45.17635" lon="1.36183">
        <ele>120</ele>
        <time>2012-10-09T09:01:06Z</time>
      </trkpt>
      <trkpt lat="45.17607" lon="1.36179">
        <ele>122</ele>
        <time>2012-10-09T09:01:27Z</time>
      </trkpt>
      <trkpt lat="45.17581" lon="1.36167">
        <ele>122</ele>
        <time>2012-10-09T09:01:48Z</time>
      </trkpt>
      <trkpt lat="45.17527" lon="1.36169">
        <ele>124</ele>
        <time>2012-10-09T09:02:30Z</time>
      </trkpt>
      <trkpt lat="45.17507" lon="1.36176">
        <ele>125</ele>
        <time>2012-10-09T09:02:52Z</time>
      </trkpt>
      <trkpt lat="45.17491" lon="1.36185">
        <ele>128</ele>
        <time>2012-10-09T09:03:17Z</time>
      </trkpt>
      <trkpt lat="45.17437" lon="1.36299">
        <ele>137</ele>
        <time>2012-10-09T09:04:49Z</time>
      </trkpt>
      <trkpt lat="45.17424" lon="1.36341">
        <ele>144</ele>
        <time>2012-10-09T09:05:38Z</time>
      </trkpt>
      <trkpt lat="45.1735" lon="1.36461">
        <ele>143</ele>
        <time>2012-10-09T09:07:31Z</time>
      </trkpt>
      <trkpt lat="45.17329" lon="1.36479">
        <ele>143</ele>
        <time>2012-10-09T09:07:53Z</time>
      </trkpt>
      <trkpt lat="45.17304" lon="1.36475">
        <ele>148</ele>
        <time>2012-10-09T09:08:16Z</time>
      </trkpt>
      <trkpt lat="45.17291" lon="1.36455">
        <ele>145</ele>
        <time>2012-10-09T09:08:39Z</time>
      </trkpt>
      <trkpt lat="45.17262" lon="1.36441">
        <ele>136</ele>
        <time>2012-10-09T09:09:00Z</time>
      </trkpt>
      <trkpt lat="45.17242" lon="1.36436">
        <ele>131</ele>
        <time>2012-10-09T09:09:20Z</time>
      </trkpt>
      <trkpt lat="45.1722" lon="1.3644">
        <ele>128</ele>
        <time>2012-10-09T09:09:41Z</time>
      </trkpt>
      <trkpt lat="45.17167" lon="1.36462">
        <ele>126</ele>
        <time>2012-10-09T09:10:22Z</time>
      </trkpt>
      <trkpt lat="45.17145" lon="1.36468">
        <ele>125</ele>
        <time>2012-10-09T09:10:43Z</time>
      </trkpt>
      <trkpt lat="45.17123" lon="1.36469">
        <ele>122</ele>
        <time>2012-10-09T09:11:03Z</time>
      </trkpt>
      <trkpt lat="45.17097" lon="1.36462">
        <ele>119</ele>
        <time>2012-10-09T09:11:24Z</time>
      </trkpt>
      <trkpt lat="45.17044" lon="1.36457">
        <ele>116</ele>
        <time>2012-10-09T09:12:09Z</time>
      </trkpt>
      <trkpt lat="45.16988" lon="1.36445">
        <ele>113</ele>
        <time>2012-10-09T09:12:50Z</time>
      </trkpt>
      <trkpt lat="45.1697" lon="1.36465">
        <ele>112</ele>
        <time>2012-10-09T09:13:11Z</time>
      </trkpt>
      <trkpt lat="45.16969" lon="1.36498">
        <ele>112</ele>
        <time>2012-10-09T09:13:33Z</time>
      </trkpt>
      <trkpt lat="45.16993" lon="1.3661">
        <ele>112</ele>
        <time>2012-10-09T09:14:37Z</time>
      </trkpt>
      <trkpt lat="45.17017" lon="1.3668">
        <ele>112</ele>
        <time>2012-10-09T09:15:18Z</time>
      </trkpt>
      <trkpt lat="45.17099" lon="1.36832">
        <ele>112</ele>
        <time>2012-10-09T09:17:09Z</time>
      </trkpt>
      <trkpt lat="45.17102" lon="1.36869">
        <ele>112</ele>
        <time>2012-10-09T09:17:33Z</time>
      </trkpt>
      <trkpt lat="45.1706" lon="1.3696">
        <ele>108</ele>
        <time>2012-10-09T09:18:45Z</time>
      </trkpt>
      <trkpt lat="45.17057" lon="1.36979">
        <ele>108</ele>
        <time>2012-10-09T09:19:09Z</time>
      </trkpt>
      <trkpt lat="45.17015" lon="1.37068">
        <ele>108</ele>
        <time>2012-10-09T09:20:15Z</time>
      </trkpt>
      <trkpt lat="45.16997" lon="1.37089">
        <ele>108</ele>
        <time>2012-10-09T09:20:35Z</time>
      </trkpt>
      <trkpt lat="45.17" lon="1.37123">
        <ele>109</ele>
        <time>2012-10-09T09:21:00Z</time>
      </trkpt>
      <trkpt lat="45.17016" lon="1.37178">
        <ele>116</ele>
        <time>2012-10-09T09:21:40Z</time>
      </trkpt>
      <trkpt lat="45.17054" lon="1.37235">
        <ele>123</ele>
        <time>2012-10-09T09:22:41Z</time>
      </trkpt>
      <trkpt lat="45.17062" lon="1.37254">
        <ele>125</ele>
        <time>2012-10-09T09:23:03Z</time>
      </trkpt>
      <trkpt lat="45.17068" lon="1.37374">
        <ele>142</ele>
        <time>2012-10-09T09:24:55Z</time>
      </trkpt>
      <trkpt lat="45.17065" lon="1.37432">
        <ele>147</ele>
        <time>2012-10-09T09:25:38Z</time>
      </trkpt>
      <trkpt lat="45.17057" lon="1.37462">
        <ele>151</ele>
        <time>2012-10-09T09:26:01Z</time>
      </trkpt>
      <trkpt lat="45.17034" lon="1.37511">
        <ele>156</ele>
        <time>2012-10-09T09:26:43Z</time>
      </trkpt>
      <trkpt lat="45.16961" lon="1.3761">
        <ele>162</ele>
        <time>2012-10-09T09:28:09Z</time>
      </trkpt>
      <trkpt lat="45.16924" lon="1.37681">
        <ele>167</ele>
        <time>2012-10-09T09:29:16Z</time>
      </trkpt>
      <trkpt lat="45.16932" lon="1.3796">
        <ele>185</ele>
        <time>2012-10-09T09:32:05Z</time>
      </trkpt>
      <trkpt lat="45.16923" lon="1.37997">
        <ele>180</ele>
        <time>2012-10-09T09:32:31Z</time>
      </trkpt>
      <trkpt lat="45.1692" lon="1.38035">
        <ele>179</ele>
        <time>2012-10-09T09:32:53Z</time>
      </trkpt>
      <trkpt lat="45.16928" lon="1.38101">
        <ele>191</ele>
        <time>2012-10-09T09:33:36Z</time>
      </trkpt>
      <trkpt lat="45.16924" lon="1.38135">
        <ele>191</ele>
        <time>2012-10-09T09:33:57Z</time>
      </trkpt>
      <trkpt lat="45.16906" lon="1.38165">
        <ele>193</ele>
        <time>2012-10-09T09:34:20Z</time>
      </trkpt>
      <trkpt lat="45.16864" lon="1.38206">
        <ele>196</ele>
        <time>2012-10-09T09:35:03Z</time>
      </trkpt>
      <trkpt lat="45.16845" lon="1.38232">
        <ele>196</ele>
        <time>2012-10-09T09:35:26Z</time>
      </trkpt>
      <trkpt lat="45.16822" lon="1.38252">
        <ele>196</ele>
        <time>2012-10-09T09:35:49Z</time>
      </trkpt>
      <trkpt lat="45.1678" lon="1.38337">
        <ele>201</ele>
        <time>2012-10-09T09:36:52Z</time>
      </trkpt>
      <trkpt lat="45.16766" lon="1.38344">
        <ele>201</ele>
        <time>2012-10-09T09:37:13Z</time>
      </trkpt>
    </trkseg>
  </trk>
</gpx>